createdAt,value
2022-07-29T00:02:57.075Z,101012.56
2022-07-29T00:05:59.659Z,101004.94
2022-07-29T00:09:04.991Z,101010.50
2022-07-29T00:12:07.860Z,101001.94
2022-07-29T00:15:12.559Z,100995.88
2022-07-29T00:18:15.078Z,101000.31
2022-07-29T00:21:17.747Z,100996.66
2022-07-29T00:24:21.720Z,100995.19
2022-07-29T00:27:24.424Z,100998.94
2022-07-29T00:30:26.965Z,101006.84
2022-07-29T00:33:30.342Z,101002.06
2022-07-29T00:36:32.462Z,101001.28
2022-07-29T00:39:36.391Z,101003.06
2022-07-29T00:42:45.577Z,101008.56
2022-07-29T00:45:48.198Z,101010.16
2022-07-29T00:48:50.785Z,101007.44
2022-07-29T00:51:53.603Z,101010.88
2022-07-29T00:54:58.429Z,101013.88
2022-07-29T00:58:01.601Z,101008.88
2022-07-29T01:01:04.226Z,101010.75
2022-07-29T01:04:08.415Z,101002.72
2022-07-29T01:07:11.997Z,100998.34
2022-07-29T01:10:17.217Z,100992.25
2022-07-29T01:13:20.343Z,100984.47
2022-07-29T01:16:28.162Z,100984.47
2022-07-29T01:19:49.620Z,100971.03
2022-07-29T01:23:11.179Z,100972.06
2022-07-29T01:26:34.856Z,100973.16
2022-07-29T01:29:43.291Z,100974.38
2022-07-29T01:32:51.983Z,100975.41
2022-07-29T01:35:54.674Z,100973.75
2022-07-29T01:39:04.593Z,100973.09
2022-07-29T01:42:14.541Z,100967.28
2022-07-29T01:45:22.544Z,100959.31
2022-07-29T01:48:29.498Z,100992.06
2022-07-29T01:51:35.305Z,100987.78
2022-07-29T01:54:43.958Z,100979.94
2022-07-29T01:57:50.676Z,100965.97
2022-07-29T02:00:56.123Z,100942.78
2022-07-29T02:04:01.140Z,100935.25
2022-07-29T02:07:06.790Z,100934.44
2022-07-29T02:10:11.954Z,100929.25
2022-07-29T02:13:15.450Z,100928.06
2022-07-29T02:16:22.645Z,100928.31
2022-07-29T02:19:28.552Z,100941.59
2022-07-29T02:22:33.114Z,100942.88
2022-07-29T02:25:38.080Z,100939.03
2022-07-29T02:28:42.065Z,100940.97
2022-07-29T02:31:48.227Z,100934.13
2022-07-29T02:34:51.778Z,100918.16
2022-07-29T02:38:09.775Z,100904.13
2022-07-29T02:41:15.361Z,100906.25
2022-07-29T02:44:19.627Z,100887.34
2022-07-29T02:47:29.759Z,100888.19
2022-07-29T02:50:36.608Z,100890.25
2022-07-29T02:53:40.550Z,100899.47
2022-07-29T02:56:46.250Z,100905.13
2022-07-29T02:59:52.287Z,100911.97
2022-07-29T03:02:58.494Z,100911.47
2022-07-29T03:06:04.381Z,100906.31
2022-07-29T03:09:12.857Z,100906.31
2022-07-29T03:12:16.811Z,100905.81
2022-07-29T03:15:20.233Z,100917.88
2022-07-29T03:18:24.324Z,100917.34
2022-07-29T03:21:26.840Z,100915.88
2022-07-29T03:24:31.979Z,100918.53
2022-07-29T03:27:34.510Z,100921.06
2022-07-29T03:30:37.149Z,100921.72
2022-07-29T03:33:42.591Z,100916.22
2022-07-29T03:36:45.111Z,100913.50
2022-07-29T03:39:49.132Z,100912.00
2022-07-29T03:42:54.157Z,100913.69
2022-07-29T03:45:58.211Z,100904.09
2022-07-29T03:49:04.798Z,100901.06
2022-07-29T03:52:07.993Z,100901.16
2022-07-29T03:55:11.764Z,100907.81
2022-07-29T03:58:16.462Z,100895.13
2022-07-29T04:01:20.551Z,100902.03
2022-07-29T04:04:24.622Z,100905.53
2022-07-29T04:07:30.722Z,100905.09
2022-07-29T04:10:34.133Z,100904.44
2022-07-29T04:13:38.293Z,100901.03
2022-07-29T04:16:40.776Z,100902.56
2022-07-29T04:19:44.591Z,100905.97
2022-07-29T04:22:47.063Z,100897.72
2022-07-29T04:25:49.885Z,100897.84
2022-07-29T04:28:52.448Z,100894.59
2022-07-29T04:31:54.956Z,100896.81
2022-07-29T04:34:58.784Z,100895.28
2022-07-29T04:38:01.268Z,100899.56
2022-07-29T04:41:03.776Z,100899.81
2022-07-29T04:44:07.455Z,100893.00
2022-07-29T04:47:11.357Z,100897.94
2022-07-29T04:50:15.186Z,100906.22
2022-07-29T04:53:17.680Z,100906.59
2022-07-29T04:56:20.171Z,100907.94
2022-07-29T04:59:22.654Z,100901.91
2022-07-29T05:02:25.280Z,100904.94
2022-07-29T05:05:29.199Z,100905.00
2022-07-29T05:08:31.691Z,100906.00
2022-07-29T05:11:34.188Z,100910.88
2022-07-29T05:14:36.681Z,100909.22
2022-07-29T05:17:39.194Z,100920.72
2022-07-29T05:20:43.439Z,100923.56
2022-07-29T05:23:45.927Z,100925.91
2022-07-29T05:26:48.439Z,100925.72
2022-07-29T05:29:50.957Z,100918.50
2022-07-29T05:32:53.422Z,100918.84
2022-07-29T05:36:00.628Z,100924.00
2022-07-29T05:39:03.625Z,100915.38
2022-07-29T05:42:10.098Z,100919.16
2022-07-29T05:45:12.860Z,100916.03
2022-07-29T05:48:15.336Z,100914.41
2022-07-29T05:51:19.175Z,100905.69
2022-07-29T05:54:21.888Z,100904.75
2022-07-29T05:57:25.828Z,100904.91
2022-07-29T06:00:28.368Z,100908.31
2022-07-29T06:03:32.196Z,100912.22
2022-07-29T06:06:36.472Z,100904.50
2022-07-29T06:09:39.019Z,100900.72
2022-07-29T06:12:41.826Z,100899.50
2022-07-29T06:15:44.429Z,100904.44
2022-07-29T06:18:46.962Z,100902.25
2022-07-29T06:21:50.811Z,100904.06
2022-07-29T06:24:53.445Z,100901.50
2022-07-29T06:27:56.098Z,100912.84
2022-07-29T06:30:58.678Z,100902.41
2022-07-29T06:34:01.221Z,100910.00
2022-07-29T06:37:15.368Z,100918.50
2022-07-29T06:40:35.988Z,100915.50
2022-07-29T06:43:42.649Z,100903.69
2022-07-29T06:46:54.044Z,100914.31
2022-07-29T06:49:56.527Z,100910.97
2022-07-29T06:53:00.345Z,100909.03
2022-07-29T06:56:04.311Z,100911.81
2022-07-29T06:59:07.162Z,100910.22
2022-07-29T07:02:09.682Z,100912.16
2022-07-29T07:05:12.323Z,100920.88
2022-07-29T07:08:17.067Z,100925.50
2022-07-29T07:11:19.582Z,100923.28
2022-07-29T07:14:22.326Z,100928.22
2022-07-29T07:17:25.211Z,100926.53
2022-07-29T07:20:27.812Z,100931.78
2022-07-29T07:23:31.676Z,100918.88
2022-07-29T07:26:34.173Z,100924.72
2022-07-29T07:29:37.169Z,100913.19
2022-07-29T07:32:39.899Z,100914.94
2022-07-29T07:35:42.609Z,100918.75
2022-07-29T07:38:46.427Z,100908.81
2022-07-29T07:41:48.970Z,100918.56
2022-07-29T07:45:12.132Z,100917.06
2022-07-29T07:48:13.956Z,100923.06
2022-07-29T07:51:16.451Z,100918.88
2022-07-29T07:54:20.396Z,100923.19
2022-07-29T07:57:23.401Z,100929.03
2022-07-29T08:00:25.973Z,100927.25
2022-07-29T08:03:28.467Z,100934.66
2022-07-29T08:06:31.003Z,100930.94
2022-07-29T08:09:35.443Z,100938.88
2022-07-29T08:12:38.239Z,100941.38
2022-07-29T08:15:42.596Z,100941.16
2022-07-29T08:18:46.622Z,100939.22
2022-07-29T08:21:49.155Z,100928.88
2022-07-29T08:24:57.081Z,100929.84
2022-07-29T08:27:59.637Z,100922.66
2022-07-29T08:31:02.119Z,100930.44
2022-07-29T08:34:04.901Z,100931.16
2022-07-29T08:37:07.397Z,100924.66
2022-07-29T08:40:12.473Z,100935.72
2022-07-29T08:43:15.086Z,100926.91
2022-07-29T08:46:18.449Z,100917.06
2022-07-29T08:49:21.116Z,100941.47
2022-07-29T08:52:27.008Z,100942.63
2022-07-29T08:55:31.302Z,100933.03
2022-07-29T08:58:36.890Z,100938.75
2022-07-29T09:01:42.325Z,100942.66
2022-07-29T09:04:46.124Z,100932.44
2022-07-29T09:07:49.052Z,100924.28
2022-07-29T09:10:53.153Z,100912.88
2022-07-29T09:13:55.774Z,100911.84
2022-07-29T09:16:58.503Z,100924.84
2022-07-29T09:20:10.784Z,100912.84
2022-07-29T09:23:14.326Z,100920.63
2022-07-29T09:26:30.539Z,100918.53
2022-07-29T09:29:36.070Z,100913.69
2022-07-29T09:32:56.888Z,100917.28
2022-07-29T09:36:05.901Z,100926.56
2022-07-29T09:39:08.738Z,100911.09
2022-07-29T09:42:12.677Z,100902.78
2022-07-29T09:45:28.991Z,100911.66
2022-07-29T09:48:31.475Z,100911.41
2022-07-29T09:51:38.175Z,100908.50
2022-07-29T09:54:41.295Z,100910.44
2022-07-29T09:57:45.983Z,100900.25
2022-07-29T10:00:50.626Z,100908.44
2022-07-29T10:03:54.307Z,100904.09
2022-07-29T10:07:04.890Z,100914.47
2022-07-29T10:10:08.551Z,100916.81
2022-07-29T10:13:16.120Z,100907.66
2022-07-29T10:16:19.101Z,100906.56
2022-07-29T10:19:22.151Z,100901.41
2022-07-29T10:22:50.650Z,100904.50
2022-07-29T10:25:47.601Z,100903.84
2022-07-29T10:28:51.396Z,100902.44
2022-07-29T10:32:09.041Z,100897.47
2022-07-29T10:35:23.943Z,100887.81
2022-07-29T10:38:38.931Z,100885.81
2022-07-29T10:42:01.393Z,100881.03
2022-07-29T10:45:08.831Z,100895.19
2022-07-29T10:48:11.483Z,100879.66
2022-07-29T10:51:18.046Z,100896.50
2022-07-29T10:54:21.560Z,100892.78
2022-07-29T10:57:53.653Z,100896.13
2022-07-29T11:00:53.189Z,100887.03
2022-07-29T11:03:57.498Z,100878.88
2022-07-29T11:07:09.998Z,100877.69
2022-07-29T11:10:22.660Z,100879.44
2022-07-29T11:13:51.102Z,100891.22
2022-07-29T11:17:06.244Z,100888.06
2022-07-29T11:20:37.750Z,100895.69
2022-07-29T11:23:43.286Z,100888.13
2022-07-29T11:27:08.519Z,100882.41
2022-07-29T11:30:12.998Z,100880.94
2022-07-29T11:33:54.581Z,100882.81
2022-07-29T11:37:16.190Z,100889.44
2022-07-29T11:40:21.409Z,100889.72
2022-07-29T11:43:48.382Z,100885.66
2022-07-29T11:46:54.077Z,100885.41
2022-07-29T11:49:59.858Z,100893.13
2022-07-29T11:53:08.829Z,100895.72
2022-07-29T11:56:17.138Z,100884.09
2022-07-29T11:59:21.827Z,100879.25
2022-07-29T12:02:37.138Z,100872.91
2022-07-29T12:05:48.182Z,100855.28
2022-07-29T12:08:54.482Z,100861.75
2022-07-29T12:12:04.938Z,100860.06
2022-07-29T12:15:16.132Z,100856.59
2022-07-29T12:18:23.927Z,100854.63
2022-07-29T12:21:29.224Z,100845.16
2022-07-29T12:24:45.607Z,100846.75
2022-07-29T12:27:59.348Z,100852.25
2022-07-29T12:31:02.818Z,100842.06
2022-07-29T12:34:05.364Z,100841.88
2022-07-29T12:37:11.249Z,100838.97
2022-07-29T12:40:17.518Z,100848.28
2022-07-29T12:43:22.126Z,100835.94
2022-07-29T12:46:24.779Z,100833.09
2022-07-29T12:49:27.377Z,100831.25
2022-07-29T12:52:32.818Z,100827.91
2022-07-29T12:55:46.077Z,100838.72
2022-07-29T12:58:51.259Z,100838.16
2022-07-29T13:01:54.492Z,100835.34
2022-07-29T13:04:58.654Z,100838.28
2022-07-29T13:08:22.133Z,100820.66
2022-07-29T13:11:34.147Z,100820.06
2022-07-29T13:14:38.944Z,100825.22
2022-07-29T13:17:43.482Z,100814.50
2022-07-29T13:20:50.632Z,100799.50
2022-07-29T13:23:54.451Z,100797.81
2022-07-29T13:26:56.935Z,100789.47
2022-07-29T13:30:01.376Z,100786.38
2022-07-29T13:33:03.880Z,100781.78
2022-07-29T13:36:06.744Z,100790.31
2022-07-29T13:39:12.234Z,100781.25
2022-07-29T13:42:14.958Z,100775.53
2022-07-29T13:45:17.557Z,100767.75
2022-07-29T13:48:20.049Z,100772.22
2022-07-29T13:51:22.615Z,100773.41
2022-07-29T13:54:26.430Z,100762.44
2022-07-29T13:57:30.331Z,100775.06
2022-07-29T14:00:33.178Z,100773.72
2022-07-29T14:03:35.746Z,100774.00
2022-07-29T14:06:38.259Z,100767.88
2022-07-29T14:09:44.491Z,100766.47
2022-07-29T14:12:46.999Z,100766.53
2022-07-29T14:15:49.494Z,100761.56
2022-07-29T14:18:52.065Z,100744.03
2022-07-29T14:21:54.606Z,100755.38
2022-07-29T14:25:06.196Z,100750.44
2022-07-29T14:28:17.385Z,100758.34
2022-07-29T14:31:19.932Z,100754.34
2022-07-29T14:34:22.471Z,100753.03
2022-07-29T14:37:24.956Z,100747.41
2022-07-29T14:40:28.889Z,100740.75
2022-07-29T14:43:31.398Z,100746.28
2022-07-29T14:46:33.975Z,100757.41
2022-07-29T14:49:36.565Z,100749.28
2022-07-29T14:52:39.163Z,100746.34
2022-07-29T14:55:42.977Z,100749.84
2022-07-29T14:58:51.500Z,100753.50
2022-07-29T15:01:54.650Z,100744.38
2022-07-29T15:04:57.451Z,100736.03
2022-07-29T15:08:01.107Z,100734.56
2022-07-29T15:11:04.938Z,100731.25
2022-07-29T15:14:07.833Z,100731.63
2022-07-29T15:17:10.468Z,100738.38
2022-07-29T15:20:14.619Z,100743.28
2022-07-29T15:23:17.139Z,100728.19
2022-07-29T15:26:21.067Z,100727.44
2022-07-29T15:29:23.601Z,100718.38
2022-07-29T15:32:26.113Z,100717.56
2022-07-29T15:35:28.615Z,100715.69
2022-07-29T15:38:31.134Z,100709.41
2022-07-29T15:41:35.806Z,100713.94
2022-07-29T15:44:38.288Z,100723.78
2022-07-29T15:47:40.899Z,100716.47
2022-07-29T15:50:47.143Z,100707.81
2022-07-29T15:53:53.384Z,100698.69
2022-07-29T15:56:58.291Z,100696.63
2022-07-29T16:00:01.073Z,100707.53
2022-07-29T16:03:03.554Z,100706.03
2022-07-29T16:06:06.537Z,100702.94
2022-07-29T16:09:09.060Z,100699.66
2022-07-29T16:12:15.239Z,100704.78
2022-07-29T16:15:18.249Z,100694.28
2022-07-29T16:18:20.747Z,100693.41
2022-07-29T16:21:32.832Z,100699.31
2022-07-29T16:24:35.331Z,100692.69
2022-07-29T16:27:39.138Z,100687.91
2022-07-29T16:30:41.618Z,100692.88
2022-07-29T16:33:55.647Z,100692.50
2022-07-29T16:36:59.043Z,100690.97
2022-07-29T16:40:01.785Z,100688.16
2022-07-29T16:43:05.606Z,100680.97
2022-07-29T16:46:11.162Z,100686.69
2022-07-29T16:49:21.625Z,100674.97
2022-07-29T16:52:24.229Z,100669.47
2022-07-29T16:55:28.603Z,100674.94
2022-07-29T16:58:33.087Z,100674.41
2022-07-29T17:01:35.617Z,100665.31
2022-07-29T17:04:38.217Z,100676.16
2022-07-29T17:07:41.397Z,100675.41
2022-07-29T17:10:43.884Z,100675.09
2022-07-29T17:13:47.765Z,100663.22
2022-07-29T17:16:55.273Z,100660.16
2022-07-29T17:20:04.874Z,100650.09
2022-07-29T17:23:07.405Z,100648.78
2022-07-29T17:26:09.903Z,100647.81
2022-07-29T17:29:14.898Z,100655.28
2022-07-29T17:32:17.530Z,100650.88
2022-07-29T17:35:37.759Z,100649.38
2022-07-29T17:38:40.276Z,100651.94
2022-07-29T17:41:44.805Z,100651.94
2022-07-29T17:44:48.668Z,100658.53
2022-07-29T17:47:51.171Z,100657.16
2022-07-29T17:50:53.694Z,100651.56
2022-07-29T17:53:56.306Z,100655.34
2022-07-29T17:56:58.971Z,100661.47
2022-07-29T18:00:03.292Z,100657.56
2022-07-29T18:03:11.440Z,100660.91
2022-07-29T18:06:14.103Z,100663.53
2022-07-29T18:09:16.609Z,100655.94
2022-07-29T18:12:19.101Z,100653.63
2022-07-29T18:15:22.980Z,100655.66
2022-07-29T18:18:25.481Z,100654.78
2022-07-29T18:21:45.853Z,100654.72
2022-07-29T18:24:51.454Z,100661.50
2022-07-29T18:27:57.256Z,100659.63
2022-07-29T18:31:04.123Z,100660.09
2022-07-29T18:34:06.889Z,100663.44
2022-07-29T18:37:09.431Z,100666.28
2022-07-29T18:40:13.466Z,100664.88
2022-07-29T18:43:16.006Z,100668.25
2022-07-29T18:46:19.847Z,100658.38
2022-07-29T18:49:22.663Z,100663.97
2022-07-29T18:52:25.223Z,100664.63
2022-07-29T18:55:29.092Z,100669.63
2022-07-29T18:58:33.308Z,100666.19
2022-07-29T19:01:37.926Z,100654.50
2022-07-29T19:04:41.170Z,100669.75
2022-07-29T19:07:43.677Z,100664.34
2022-07-29T19:10:46.516Z,100668.03
2022-07-29T19:13:49.301Z,100668.59
2022-07-29T19:16:53.124Z,100664.59
2022-07-29T19:19:55.643Z,100664.88
2022-07-29T19:22:58.511Z,100671.31
2022-07-29T19:26:01.103Z,100674.75
2022-07-29T19:29:04.394Z,100688.25
2022-07-29T19:32:08.704Z,100682.19
2022-07-29T19:35:28.336Z,100682.53
2022-07-29T19:38:31.507Z,100685.97
2022-07-29T19:41:34.373Z,100697.13
2022-07-29T19:44:36.901Z,100688.78
2022-07-29T19:47:40.794Z,100699.13
2022-07-29T19:50:43.495Z,100691.06
2022-07-29T19:53:46.201Z,100703.97
2022-07-29T19:56:48.697Z,100699.19
2022-07-29T19:59:52.172Z,100702.72
2022-07-29T20:02:57.402Z,100711.91
2022-07-29T20:06:00.029Z,100698.34
2022-07-29T20:09:02.598Z,100701.28
2022-07-29T20:12:06.543Z,100693.34
2022-07-29T20:15:16.330Z,100694.47
2022-07-29T20:18:20.552Z,100701.94
2022-07-29T20:21:23.141Z,100693.84
2022-07-29T20:24:25.726Z,100695.50
2022-07-29T20:27:28.256Z,100696.75
2022-07-29T20:30:30.757Z,100694.53
2022-07-29T20:33:34.693Z,100702.63
2022-07-29T20:36:37.587Z,100693.75
2022-07-29T20:39:40.178Z,100699.63
2022-07-29T20:42:42.680Z,100696.56
2022-07-29T20:45:45.310Z,100704.47
2022-07-29T20:48:49.182Z,100696.44
2022-07-29T20:51:51.712Z,100694.47
2022-07-29T20:54:54.206Z,100687.53
2022-07-29T20:57:56.706Z,100698.66
2022-07-29T21:00:59.222Z,100700.88
2022-07-29T21:04:04.016Z,100703.47
2022-07-29T21:07:06.531Z,100700.66
2022-07-29T21:10:09.494Z,100710.53
2022-07-29T21:13:12.386Z,100699.63
2022-07-29T21:16:18.082Z,100709.38
2022-07-29T21:19:22.028Z,100706.06
2022-07-29T21:22:24.512Z,100711.81
2022-07-29T21:25:27.205Z,100707.56
2022-07-29T21:28:30.537Z,100713.63
2022-07-29T21:31:33.043Z,100712.19
2022-07-29T21:34:36.880Z,100712.19
2022-07-29T21:37:39.894Z,100721.03
2022-07-29T21:40:42.403Z,100715.03
2022-07-29T21:43:46.038Z,100719.69
2022-07-29T21:46:48.788Z,100725.91
2022-07-29T21:49:52.959Z,100717.06
2022-07-29T21:52:55.506Z,100723.16
2022-07-29T21:55:58.059Z,100722.19
2022-07-29T21:59:01.870Z,100711.97
2022-07-29T22:02:04.429Z,100717.09
2022-07-29T22:05:09.125Z,100721.19
2022-07-29T22:08:11.705Z,100718.19
2022-07-29T22:11:14.403Z,100720.00
2022-07-29T22:14:18.475Z,100715.81
2022-07-29T22:17:21.080Z,100716.16
2022-07-29T22:20:25.363Z,100707.66
2022-07-29T22:23:27.873Z,100706.59
2022-07-29T22:26:30.579Z,100715.50
2022-07-29T22:29:33.069Z,100707.97
2022-07-29T22:32:35.569Z,100720.13
2022-07-29T22:35:39.630Z,100712.69
2022-07-29T22:38:42.130Z,100715.34
2022-07-29T22:41:44.782Z,100712.91
2022-07-29T22:44:47.434Z,100707.78
2022-07-29T22:47:53.470Z,100697.97
2022-07-29T22:51:03.649Z,100704.34
2022-07-29T22:54:06.577Z,100701.66
2022-07-29T22:57:09.065Z,100698.63
2022-07-29T23:00:12.853Z,100713.47
2022-07-29T23:03:15.392Z,100699.72
2022-07-29T23:06:19.258Z,100699.50
2022-07-29T23:09:21.791Z,100703.88
2022-07-29T23:12:24.340Z,100695.00
2022-07-29T23:15:26.890Z,100692.69
2022-07-29T23:18:29.435Z,100688.25
2022-07-29T23:21:33.555Z,100683.50
2022-07-29T23:24:36.071Z,100679.13
2022-07-29T23:27:38.673Z,100682.41
2022-07-29T23:30:41.717Z,100686.03
2022-07-29T23:33:44.324Z,100674.00
2022-07-29T23:36:48.242Z,100676.69
2022-07-29T23:39:50.740Z,100679.13
2022-07-29T23:42:53.384Z,100682.31
2022-07-29T23:45:58.181Z,100675.38
2022-07-29T23:49:01.278Z,100672.53
2022-07-29T23:52:05.928Z,100669.47
2022-07-29T23:55:37.916Z,100667.25
2022-07-29T23:58:31.573Z,100670.34
